sensor_id;sensor_type;location;lat;lon;timestamp;temperature;humidity
42979;DHT22;28616;44.746;19.678;2022-12-10T00:01:46;11.90;99.90
42979;DHT22;28616;44.746;19.678;2022-12-10T00:04:13;11.80;99.90
42979;DHT22;28616;44.746;19.678;2022-12-10T00:06:40;11.80;99.90
42979;DHT22;28616;44.746;19.678;2022-12-10T00:09:09;11.80;99.90
42979;DHT22;28616;44.746;19.678;2022-12-10T00:11:37;11.80;99.90
42979;DHT22;28616;44.746;19.678;2022-12-10T00:14:03;11.80;99.90
42979;DHT22;28616;44.746;19.678;2022-12-10T00:16:29;11.90;99.90
42979;DHT22;28616;44.746;19.678;2022-12-10T00:18:56;11.80;99.90
42979;DHT22;28616;44.746;19.678;2022-12-10T00:21:28;11.80;99.90
42979;DHT22;28616;44.746;19.678;2022-12-10T00:23:54;11.80;99.90
42979;DHT22;28616;44.746;19.678;2022-12-10T00:26:22;11.80;99.90
42979;DHT22;28616;44.746;19.678;2022-12-10T00:28:49;11.80;99.90
42979;DHT22;28616;44.746;19.678;2022-12-10T00:31:20;11.80;99.90
42979;DHT22;28616;44.746;19.678;2022-12-10T00:33:47;11.80;99.90
42979;DHT22;28616;44.746;19.678;2022-12-10T00:36:14;11.80;99.90
42979;DHT22;28616;44.746;19.678;2022-12-10T00:38:41;11.70;99.90
42979;DHT22;28616;44.746;19.678;2022-12-10T00:41:08;11.60;99.90
42979;DHT22;28616;44.746;19.678;2022-12-10T00:43:34;11.60;99.90
42979;DHT22;28616;44.746;19.678;2022-12-10T00:46:00;11.60;99.90
42979;DHT22;28616;44.746;19.678;2022-12-10T00:48:26;11.60;99.90
42979;DHT22;28616;44.746;19.678;2022-12-10T00:51:00;11.60;99.90
42979;DHT22;28616;44.746;19.678;2022-12-10T00:53:27;11.60;99.90
42979;DHT22;28616;44.746;19.678;2022-12-10T00:55:53;11.50;99.90
42979;DHT22;28616;44.746;19.678;2022-12-10T00:58:20;11.50;99.90
42979;DHT22;28616;44.746;19.678;2022-12-10T01:00:46;11.50;99.90
42979;DHT22;28616;44.746;19.678;2022-12-10T01:03:13;11.50;99.90
42979;DHT22;28616;44.746;19.678;2022-12-10T01:05:39;11.60;99.90
42979;DHT22;28616;44.746;19.678;2022-12-10T01:08:05;11.60;99.90
42979;DHT22;28616;44.746;19.678;2022-12-10T01:10:31;11.60;99.90
42979;DHT22;28616;44.746;19.678;2022-12-10T01:12:56;11.60;99.90
42979;DHT22;28616;44.746;19.678;2022-12-10T01:15:22;11.60;99.90
42979;DHT22;28616;44.746;19.678;2022-12-10T01:17:48;11.60;99.90
42979;DHT22;28616;44.746;19.678;2022-12-10T01:20:14;11.60;99.90
42979;DHT22;28616;44.746;19.678;2022-12-10T01:22:39;11.60;99.90
42979;DHT22;28616;44.746;19.678;2022-12-10T01:25:05;11.60;99.90
42979;DHT22;28616;44.746;19.678;2022-12-10T01:27:31;11.60;99.90
42979;DHT22;28616;44.746;19.678;2022-12-10T01:29:57;11.60;99.90
42979;DHT22;28616;44.746;19.678;2022-12-10T01:32:23;11.60;99.90
42979;DHT22;28616;44.746;19.678;2022-12-10T01:34:49;11.70;99.90
42979;DHT22;28616;44.746;19.678;2022-12-10T01:37:14;11.70;99.90
42979;DHT22;28616;44.746;19.678;2022-12-10T01:39:40;11.70;99.90
42979;DHT22;28616;44.746;19.678;2022-12-10T01:42:06;11.80;99.90
42979;DHT22;28616;44.746;19.678;2022-12-10T01:46:59;11.90;99.90
42979;DHT22;28616;44.746;19.678;2022-12-10T01:49:32;11.80;99.90
42979;DHT22;28616;44.746;19.678;2022-12-10T01:51:59;11.90;99.90
42979;DHT22;28616;44.746;19.678;2022-12-10T01:54:37;11.90;99.90
42979;DHT22;28616;44.746;19.678;2022-12-10T01:57:07;11.90;99.90
42979;DHT22;28616;44.746;19.678;2022-12-10T01:59:34;11.90;99.90
42979;DHT22;28616;44.746;19.678;2022-12-10T02:05:07;11.90;99.90
42979;DHT22;28616;44.746;19.678;2022-12-10T02:13:34;11.80;99.90
42979;DHT22;28616;44.746;19.678;2022-12-10T02:16:23;11.80;99.90
42979;DHT22;28616;44.746;19.678;2022-12-10T02:19:21;11.70;99.90
42979;DHT22;28616;44.746;19.678;2022-12-10T02:21:50;11.70;99.90
42979;DHT22;28616;44.746;19.678;2022-12-10T02:24:25;11.70;99.90
42979;DHT22;28616;44.746;19.678;2022-12-10T02:27:07;11.60;99.90
42979;DHT22;28616;44.746;19.678;2022-12-10T02:29:34;11.50;99.90
42979;DHT22;28616;44.746;19.678;2022-12-10T02:32:08;11.50;99.90
42979;DHT22;28616;44.746;19.678;2022-12-10T02:34:40;11.50;99.90
42979;DHT22;28616;44.746;19.678;2022-12-10T02:37:12;11.50;99.90
42979;DHT22;28616;44.746;19.678;2022-12-10T02:39:45;11.50;99.90
42979;DHT22;28616;44.746;19.678;2022-12-10T02:42:12;11.50;99.90
42979;DHT22;28616;44.746;19.678;2022-12-10T02:44:42;11.50;99.90
42979;DHT22;28616;44.746;19.678;2022-12-10T02:47:09;11.50;99.90
42979;DHT22;28616;44.746;19.678;2022-12-10T02:49:37;11.50;99.90
42979;DHT22;28616;44.746;19.678;2022-12-10T02:52:09;11.50;99.90
42979;DHT22;28616;44.746;19.678;2022-12-10T02:54:48;11.50;99.90
42979;DHT22;28616;44.746;19.678;2022-12-10T03:00:04;11.60;99.90
42979;DHT22;28616;44.746;19.678;2022-12-10T03:08:08;11.60;99.90
42979;DHT22;28616;44.746;19.678;2022-12-10T03:10:45;11.60;99.90
42979;DHT22;28616;44.746;19.678;2022-12-10T03:13:15;11.60;99.90
42979;DHT22;28616;44.746;19.678;2022-12-10T03:15:43;11.70;99.90
42979;DHT22;28616;44.746;19.678;2022-12-10T03:18:11;11.70;99.90
42979;DHT22;28616;44.746;19.678;2022-12-10T03:20:41;11.70;99.90
42979;DHT22;28616;44.746;19.678;2022-12-10T03:23:10;11.70;99.90
42979;DHT22;28616;44.746;19.678;2022-12-10T03:25:37;11.60;99.90
42979;DHT22;28616;44.746;19.678;2022-12-10T03:28:04;11.60;99.90
42979;DHT22;28616;44.746;19.678;2022-12-10T03:30:33;11.60;99.90
42979;DHT22;28616;44.746;19.678;2022-12-10T03:33:01;11.60;99.90
42979;DHT22;28616;44.746;19.678;2022-12-10T03:35:27;11.50;99.90
42979;DHT22;28616;44.746;19.678;2022-12-10T03:37:53;11.50;99.90
42979;DHT22;28616;44.746;19.678;2022-12-10T03:40:22;11.50;99.90
42979;DHT22;28616;44.746;19.678;2022-12-10T03:42:49;11.50;99.90
42979;DHT22;28616;44.746;19.678;2022-12-10T03:45:14;11.50;99.90
42979;DHT22;28616;44.746;19.678;2022-12-10T03:47:41;11.60;99.90
42979;DHT22;28616;44.746;19.678;2022-12-10T03:50:07;11.70;99.90
42979;DHT22;28616;44.746;19.678;2022-12-10T03:52:33;11.70;99.90
42979;DHT22;28616;44.746;19.678;2022-12-10T03:54:59;11.80;99.90
42979;DHT22;28616;44.746;19.678;2022-12-10T03:57:25;11.80;99.90
42979;DHT22;28616;44.746;19.678;2022-12-10T03:59:51;11.80;99.90
42979;DHT22;28616;44.746;19.678;2022-12-10T04:02:17;11.80;99.90
42979;DHT22;28616;44.746;19.678;2022-12-10T04:04:42;11.80;99.90
42979;DHT22;28616;44.746;19.678;2022-12-10T04:07:08;11.80;99.90
42979;DHT22;28616;44.746;19.678;2022-12-10T04:09:34;11.90;99.90
42979;DHT22;28616;44.746;19.678;2022-12-10T04:12:00;11.90;99.90
42979;DHT22;28616;44.746;19.678;2022-12-10T04:14:27;11.90;99.90
42979;DHT22;28616;44.746;19.678;2022-12-10T04:17:12;12.00;99.90
42979;DHT22;28616;44.746;19.678;2022-12-10T04:19:37;12.00;99.90
42979;DHT22;28616;44.746;19.678;2022-12-10T04:22:03;12.20;99.90
42979;DHT22;28616;44.746;19.678;2022-12-10T04:24:48;12.20;99.90
42979;DHT22;28616;44.746;19.678;2022-12-10T04:27:37;12.30;99.90
42979;DHT22;28616;44.746;19.678;2022-12-10T04:30:06;12.30;99.90
42979;DHT22;28616;44.746;19.678;2022-12-10T04:32:32;12.40;99.90
42979;DHT22;28616;44.746;19.678;2022-12-10T04:34:58;12.40;99.90
42979;DHT22;28616;44.746;19.678;2022-12-10T04:37:25;12.50;99.90
42979;DHT22;28616;44.746;19.678;2022-12-10T04:39:52;12.50;99.90
42979;DHT22;28616;44.746;19.678;2022-12-10T04:42:19;12.50;99.90
42979;DHT22;28616;44.746;19.678;2022-12-10T04:44:45;12.50;99.90
42979;DHT22;28616;44.746;19.678;2022-12-10T04:47:11;12.50;99.90
42979;DHT22;28616;44.746;19.678;2022-12-10T04:49:37;12.50;99.90
42979;DHT22;28616;44.746;19.678;2022-12-10T04:52:04;12.50;99.90
42979;DHT22;28616;44.746;19.678;2022-12-10T04:54:31;12.50;99.90
42979;DHT22;28616;44.746;19.678;2022-12-10T04:56:56;12.50;99.90
42979;DHT22;28616;44.746;19.678;2022-12-10T04:59:22;12.50;99.90
42979;DHT22;28616;44.746;19.678;2022-12-10T05:01:48;12.50;99.90
42979;DHT22;28616;44.746;19.678;2022-12-10T05:04:16;12.60;99.90
42979;DHT22;28616;44.746;19.678;2022-12-10T05:06:42;12.60;99.90
42979;DHT22;28616;44.746;19.678;2022-12-10T05:09:10;12.60;99.90
42979;DHT22;28616;44.746;19.678;2022-12-10T05:11:37;12.60;99.90
42979;DHT22;28616;44.746;19.678;2022-12-10T05:14:03;12.50;99.90
42979;DHT22;28616;44.746;19.678;2022-12-10T05:16:31;12.50;99.90
42979;DHT22;28616;44.746;19.678;2022-12-10T05:18:57;12.50;99.90
42979;DHT22;28616;44.746;19.678;2022-12-10T05:21:25;12.50;99.90
42979;DHT22;28616;44.746;19.678;2022-12-10T05:24:12;12.50;99.90
42979;DHT22;28616;44.746;19.678;2022-12-10T05:26:38;12.60;99.90
42979;DHT22;28616;44.746;19.678;2022-12-10T05:29:03;12.60;99.90
42979;DHT22;28616;44.746;19.678;2022-12-10T05:31:30;12.60;99.90
42979;DHT22;28616;44.746;19.678;2022-12-10T05:33:57;12.60;99.90
42979;DHT22;28616;44.746;19.678;2022-12-10T05:36:27;12.60;99.90
42979;DHT22;28616;44.746;19.678;2022-12-10T05:38:54;12.60;99.90
42979;DHT22;28616;44.746;19.678;2022-12-10T05:41:22;12.70;99.90
42979;DHT22;28616;44.746;19.678;2022-12-10T05:43:49;12.70;99.90
42979;DHT22;28616;44.746;19.678;2022-12-10T05:46:17;12.70;99.90
42979;DHT22;28616;44.746;19.678;2022-12-10T05:48:43;12.70;99.90
42979;DHT22;28616;44.746;19.678;2022-12-10T05:51:12;12.70;99.90
42979;DHT22;28616;44.746;19.678;2022-12-10T05:53:38;12.70;99.90
42979;DHT22;28616;44.746;19.678;2022-12-10T05:56:07;12.80;99.90
42979;DHT22;28616;44.746;19.678;2022-12-10T05:58:33;12.80;99.90
42979;DHT22;28616;44.746;19.678;2022-12-10T06:01:00;12.80;99.90
42979;DHT22;28616;44.746;19.678;2022-12-10T06:03:28;12.80;99.90
42979;DHT22;28616;44.746;19.678;2022-12-10T06:05:54;12.80;99.90
42979;DHT22;28616;44.746;19.678;2022-12-10T06:08:20;12.80;99.90
42979;DHT22;28616;44.746;19.678;2022-12-10T06:10:46;12.70;99.90
42979;DHT22;28616;44.746;19.678;2022-12-10T06:13:11;12.60;99.90
42979;DHT22;28616;44.746;19.678;2022-12-10T06:15:42;12.50;99.90
42979;DHT22;28616;44.746;19.678;2022-12-10T06:18:08;12.40;99.90
42979;DHT22;28616;44.746;19.678;2022-12-10T06:20:37;12.30;99.90
42979;DHT22;28616;44.746;19.678;2022-12-10T06:23:03;12.40;99.90
42979;DHT22;28616;44.746;19.678;2022-12-10T06:25:29;12.30;99.90
42979;DHT22;28616;44.746;19.678;2022-12-10T06:27:55;12.30;99.90
42979;DHT22;28616;44.746;19.678;2022-12-10T06:30:21;12.20;99.90
42979;DHT22;28616;44.746;19.678;2022-12-10T06:32:46;12.20;99.90
42979;DHT22;28616;44.746;19.678;2022-12-10T06:35:12;12.10;99.90
42979;DHT22;28616;44.746;19.678;2022-12-10T06:37:38;12.10;99.90
42979;DHT22;28616;44.746;19.678;2022-12-10T06:40:04;12.20;99.90
42979;DHT22;28616;44.746;19.678;2022-12-10T06:42:30;12.10;99.90
42979;DHT22;28616;44.746;19.678;2022-12-10T06:44:56;12.10;99.90
42979;DHT22;28616;44.746;19.678;2022-12-10T06:47:22;12.10;99.90
42979;DHT22;28616;44.746;19.678;2022-12-10T06:49:48;12.10;99.90
42979;DHT22;28616;44.746;19.678;2022-12-10T06:52:14;12.10;99.90
42979;DHT22;28616;44.746;19.678;2022-12-10T06:54:40;12.20;99.90
42979;DHT22;28616;44.746;19.678;2022-12-10T06:57:06;12.20;99.90
42979;DHT22;28616;44.746;19.678;2022-12-10T06:59:32;12.20;99.90
42979;DHT22;28616;44.746;19.678;2022-12-10T07:01:57;12.20;99.90
42979;DHT22;28616;44.746;19.678;2022-12-10T07:04:23;12.20;99.90
42979;DHT22;28616;44.746;19.678;2022-12-10T07:06:50;12.20;99.90
42979;DHT22;28616;44.746;19.678;2022-12-10T07:09:15;12.20;99.90
42979;DHT22;28616;44.746;19.678;2022-12-10T07:11:42;12.20;99.90
42979;DHT22;28616;44.746;19.678;2022-12-10T07:14:14;12.30;99.90
42979;DHT22;28616;44.746;19.678;2022-12-10T07:16:40;12.20;99.90
42979;DHT22;28616;44.746;19.678;2022-12-10T07:19:07;12.30;99.90
42979;DHT22;28616;44.746;19.678;2022-12-10T07:21:35;12.20;99.90
42979;DHT22;28616;44.746;19.678;2022-12-10T07:24:06;12.20;99.90
42979;DHT22;28616;44.746;19.678;2022-12-10T07:26:34;12.20;99.90
42979;DHT22;28616;44.746;19.678;2022-12-10T07:29:02;12.20;99.90
42979;DHT22;28616;44.746;19.678;2022-12-10T07:31:28;12.20;99.90
42979;DHT22;28616;44.746;19.678;2022-12-10T07:33:54;12.10;99.90
42979;DHT22;28616;44.746;19.678;2022-12-10T07:36:21;12.10;99.90
42979;DHT22;28616;44.746;19.678;2022-12-10T07:38:51;12.00;99.90
42979;DHT22;28616;44.746;19.678;2022-12-10T07:41:18;12.10;99.90
42979;DHT22;28616;44.746;19.678;2022-12-10T07:43:45;12.00;99.90
42979;DHT22;28616;44.746;19.678;2022-12-10T07:46:22;12.00;99.90
42979;DHT22;28616;44.746;19.678;2022-12-10T07:48:49;12.00;99.90
42979;DHT22;28616;44.746;19.678;2022-12-10T07:51:17;11.90;99.90
42979;DHT22;28616;44.746;19.678;2022-12-10T07:53:44;11.90;99.90
42979;DHT22;28616;44.746;19.678;2022-12-10T07:56:10;11.90;99.90
42979;DHT22;28616;44.746;19.678;2022-12-10T07:58:37;11.90;99.90
42979;DHT22;28616;44.746;19.678;2022-12-10T08:01:10;11.80;99.90
42979;DHT22;28616;44.746;19.678;2022-12-10T08:03:36;11.80;99.90
42979;DHT22;28616;44.746;19.678;2022-12-10T08:06:12;11.90;99.90
42979;DHT22;28616;44.746;19.678;2022-12-10T08:08:39;11.90;99.90
42979;DHT22;28616;44.746;19.678;2022-12-10T08:11:06;11.90;99.90
42979;DHT22;28616;44.746;19.678;2022-12-10T08:13:33;11.90;99.90
42979;DHT22;28616;44.746;19.678;2022-12-10T08:16:08;11.90;99.90
42979;DHT22;28616;44.746;19.678;2022-12-10T08:18:35;11.90;99.90
42979;DHT22;28616;44.746;19.678;2022-12-10T08:21:11;11.90;99.90
42979;DHT22;28616;44.746;19.678;2022-12-10T08:23:37;12.00;99.90
42979;DHT22;28616;44.746;19.678;2022-12-10T08:26:05;12.00;99.90
42979;DHT22;28616;44.746;19.678;2022-12-10T08:28:31;12.00;99.90
42979;DHT22;28616;44.746;19.678;2022-12-10T08:30:57;12.00;99.90
42979;DHT22;28616;44.746;19.678;2022-12-10T08:33:23;12.00;99.90
42979;DHT22;28616;44.746;19.678;2022-12-10T08:35:48;12.00;99.90
42979;DHT22;28616;44.746;19.678;2022-12-10T08:38:14;12.00;99.90
42979;DHT22;28616;44.746;19.678;2022-12-10T08:40:41;12.00;99.90
42979;DHT22;28616;44.746;19.678;2022-12-10T08:43:07;12.20;99.90
42979;DHT22;28616;44.746;19.678;2022-12-10T08:45:33;12.50;99.90
42979;DHT22;28616;44.746;19.678;2022-12-10T08:48:00;12.70;99.90
42979;DHT22;28616;44.746;19.678;2022-12-10T08:50:26;12.80;99.90
42979;DHT22;28616;44.746;19.678;2022-12-10T08:52:52;12.90;99.90
42979;DHT22;28616;44.746;19.678;2022-12-10T08:55:18;13.10;99.90
42979;DHT22;28616;44.746;19.678;2022-12-10T08:57:44;13.10;99.90
42979;DHT22;28616;44.746;19.678;2022-12-10T09:00:10;13.20;99.90
42979;DHT22;28616;44.746;19.678;2022-12-10T09:02:37;13.10;99.90
42979;DHT22;28616;44.746;19.678;2022-12-10T09:05:03;13.20;99.90
42979;DHT22;28616;44.746;19.678;2022-12-10T09:07:29;13.30;99.90
42979;DHT22;28616;44.746;19.678;2022-12-10T09:09:55;13.20;99.90
42979;DHT22;28616;44.746;19.678;2022-12-10T09:12:20;13.30;99.90
42979;DHT22;28616;44.746;19.678;2022-12-10T09:14:46;13.30;99.90
42979;DHT22;28616;44.746;19.678;2022-12-10T09:17:12;13.20;99.90
42979;DHT22;28616;44.746;19.678;2022-12-10T09:19:37;13.20;99.90
42979;DHT22;28616;44.746;19.678;2022-12-10T09:22:03;13.20;99.90
42979;DHT22;28616;44.746;19.678;2022-12-10T09:24:29;13.20;99.90
42979;DHT22;28616;44.746;19.678;2022-12-10T09:26:55;13.40;99.90
42979;DHT22;28616;44.746;19.678;2022-12-10T09:29:20;13.40;99.90
42979;DHT22;28616;44.746;19.678;2022-12-10T09:31:50;13.30;99.90
42979;DHT22;28616;44.746;19.678;2022-12-10T09:34:16;13.30;99.90
42979;DHT22;28616;44.746;19.678;2022-12-10T09:36:42;13.20;99.90
42979;DHT22;28616;44.746;19.678;2022-12-10T09:39:08;13.50;99.90
42979;DHT22;28616;44.746;19.678;2022-12-10T09:46:59;13.80;99.90
42979;DHT22;28616;44.746;19.678;2022-12-10T09:49:40;14.30;99.90
42979;DHT22;28616;44.746;19.678;2022-12-10T09:52:13;14.70;99.90
42979;DHT22;28616;44.746;19.678;2022-12-10T09:54:54;14.80;99.90
42979;DHT22;28616;44.746;19.678;2022-12-10T09:57:41;14.70;99.90
42979;DHT22;28616;44.746;19.678;2022-12-10T10:00:29;14.80;99.90
42979;DHT22;28616;44.746;19.678;2022-12-10T10:02:57;14.90;99.90
42979;DHT22;28616;44.746;19.678;2022-12-10T10:05:34;14.90;99.90
42979;DHT22;28616;44.746;19.678;2022-12-10T10:08:06;15.00;99.90
42979;DHT22;28616;44.746;19.678;2022-12-10T10:10:39;15.00;99.90
42979;DHT22;28616;44.746;19.678;2022-12-10T10:15:41;14.70;99.90
42979;DHT22;28616;44.746;19.678;2022-12-10T10:20:52;14.40;99.90
42979;DHT22;28616;44.746;19.678;2022-12-10T10:23:17;14.30;99.90
42979;DHT22;28616;44.746;19.678;2022-12-10T10:25:44;14.40;99.90
42979;DHT22;28616;44.746;19.678;2022-12-10T10:28:19;14.40;99.90
42979;DHT22;28616;44.746;19.678;2022-12-10T10:30:45;14.40;99.90
42979;DHT22;28616;44.746;19.678;2022-12-10T10:33:13;15.00;99.90
42979;DHT22;28616;44.746;19.678;2022-12-10T10:35:58;15.90;99.90
42979;DHT22;28616;44.746;19.678;2022-12-10T10:38:29;16.80;99.90
42979;DHT22;28616;44.746;19.678;2022-12-10T10:40:57;17.50;99.90
42979;DHT22;28616;44.746;19.678;2022-12-10T10:43:27;17.70;99.90
42979;DHT22;28616;44.746;19.678;2022-12-10T10:48:33;18.30;99.90
42979;DHT22;28616;44.746;19.678;2022-12-10T10:56:38;18.80;99.90
42979;DHT22;28616;44.746;19.678;2022-12-10T11:01:50;18.70;99.90
42979;DHT22;28616;44.746;19.678;2022-12-10T11:04:19;18.80;99.90
42979;DHT22;28616;44.746;19.678;2022-12-10T11:06:48;18.70;99.90
42979;DHT22;28616;44.746;19.678;2022-12-10T11:09:26;18.50;99.90
42979;DHT22;28616;44.746;19.678;2022-12-10T11:12:00;18.30;99.90
42979;DHT22;28616;44.746;19.678;2022-12-10T11:14:46;18.40;99.90
42979;DHT22;28616;44.746;19.678;2022-12-10T11:19:53;18.20;99.90
42979;DHT22;28616;44.746;19.678;2022-12-10T11:22:23;18.20;99.90
42979;DHT22;28616;44.746;19.678;2022-12-10T11:24:49;18.00;99.90
42979;DHT22;28616;44.746;19.678;2022-12-10T11:30:20;17.40;99.90
42979;DHT22;28616;44.746;19.678;2022-12-10T11:38:38;16.80;99.90
42979;DHT22;28616;44.746;19.678;2022-12-10T11:41:15;16.50;99.90
42979;DHT22;28616;44.746;19.678;2022-12-10T11:46:51;16.00;99.90
42979;DHT22;28616;44.746;19.678;2022-12-10T12:09:07;15.50;99.90
42979;DHT22;28616;44.746;19.678;2022-12-10T12:14:40;15.60;99.90
42979;DHT22;28616;44.746;19.678;2022-12-10T12:17:34;15.50;99.90
42979;DHT22;28616;44.746;19.678;2022-12-10T12:20:08;15.50;99.90
42979;DHT22;28616;44.746;19.678;2022-12-10T12:22:45;15.50;99.90
42979;DHT22;28616;44.746;19.678;2022-12-10T12:25:23;15.50;99.90
42979;DHT22;28616;44.746;19.678;2022-12-10T12:30:32;15.40;99.90
42979;DHT22;28616;44.746;19.678;2022-12-10T12:33:23;15.40;99.90
42979;DHT22;28616;44.746;19.678;2022-12-10T12:36:09;15.40;99.90
42979;DHT22;28616;44.746;19.678;2022-12-10T12:39:05;15.30;99.90
42979;DHT22;28616;44.746;19.678;2022-12-10T12:41:43;15.30;99.90
42979;DHT22;28616;44.746;19.678;2022-12-10T12:46:51;15.20;99.90
42979;DHT22;28616;44.746;19.678;2022-12-10T12:49:33;15.20;99.90
42979;DHT22;28616;44.746;19.678;2022-12-10T12:52:09;15.20;99.90
42979;DHT22;28616;44.746;19.678;2022-12-10T12:54:41;15.10;99.90
42979;DHT22;28616;44.746;19.678;2022-12-10T12:57:35;15.20;99.90
42979;DHT22;28616;44.746;19.678;2022-12-10T13:00:17;15.20;99.90
42979;DHT22;28616;44.746;19.678;2022-12-10T13:13:24;15.10;99.90
42979;DHT22;28616;44.746;19.678;2022-12-10T13:15:51;15.00;99.90
42979;DHT22;28616;44.746;19.678;2022-12-10T13:21:15;15.00;99.90
42979;DHT22;28616;44.746;19.678;2022-12-10T13:24:10;14.90;99.90
42979;DHT22;28616;44.746;19.678;2022-12-10T13:26:41;14.90;99.90
42979;DHT22;28616;44.746;19.678;2022-12-10T13:29:27;14.80;99.90
42979;DHT22;28616;44.746;19.678;2022-12-10T13:32:03;14.80;99.90
42979;DHT22;28616;44.746;19.678;2022-12-10T13:34:34;14.80;99.90
42979;DHT22;28616;44.746;19.678;2022-12-10T13:42:31;14.60;99.90
42979;DHT22;28616;44.746;19.678;2022-12-10T13:47:49;14.60;99.90
42979;DHT22;28616;44.746;19.678;2022-12-10T13:50:36;14.60;99.90
42979;DHT22;28616;44.746;19.678;2022-12-10T14:04:29;14.50;99.90
42979;DHT22;28616;44.746;19.678;2022-12-10T14:06:58;14.50;99.90
42979;DHT22;28616;44.746;19.678;2022-12-10T14:09:33;14.50;99.90
42979;DHT22;28616;44.746;19.678;2022-12-10T14:12:04;14.40;99.90
42979;DHT22;28616;44.746;19.678;2022-12-10T14:14:34;14.40;99.90
42979;DHT22;28616;44.746;19.678;2022-12-10T14:17:09;14.30;99.90
42979;DHT22;28616;44.746;19.678;2022-12-10T14:19:36;14.30;99.90
42979;DHT22;28616;44.746;19.678;2022-12-10T14:22:22;14.20;99.90
42979;DHT22;28616;44.746;19.678;2022-12-10T14:24:50;14.20;99.90
42979;DHT22;28616;44.746;19.678;2022-12-10T14:27:25;14.20;99.90
42979;DHT22;28616;44.746;19.678;2022-12-10T14:30:14;14.10;99.90
42979;DHT22;28616;44.746;19.678;2022-12-10T14:32:41;14.10;99.90
42979;DHT22;28616;44.746;19.678;2022-12-10T14:35:29;14.00;99.90
42979;DHT22;28616;44.746;19.678;2022-12-10T14:37:57;14.00;99.90
42979;DHT22;28616;44.746;19.678;2022-12-10T14:40:38;14.00;99.90
42979;DHT22;28616;44.746;19.678;2022-12-10T14:43:08;14.00;99.90
42979;DHT22;28616;44.746;19.678;2022-12-10T14:45:48;13.90;99.90
42979;DHT22;28616;44.746;19.678;2022-12-10T14:48:17;13.90;99.90
42979;DHT22;28616;44.746;19.678;2022-12-10T14:50:44;13.90;99.90
42979;DHT22;28616;44.746;19.678;2022-12-10T14:53:24;13.80;99.90
42979;DHT22;28616;44.746;19.678;2022-12-10T14:55:53;13.70;99.90
42979;DHT22;28616;44.746;19.678;2022-12-10T14:59:27;13.70;99.90
42979;DHT22;28616;44.746;19.678;2022-12-10T15:03:53;13.70;99.90
42979;DHT22;28616;44.746;19.678;2022-12-10T15:06:20;13.60;99.90
42979;DHT22;28616;44.746;19.678;2022-12-10T15:08:48;13.50;99.90
42979;DHT22;28616;44.746;19.678;2022-12-10T15:11:17;13.50;99.90
42979;DHT22;28616;44.746;19.678;2022-12-10T15:13:48;13.40;99.90
42979;DHT22;28616;44.746;19.678;2022-12-10T15:19:18;13.30;99.90
42979;DHT22;28616;44.746;19.678;2022-12-10T15:21:45;13.20;99.90
42979;DHT22;28616;44.746;19.678;2022-12-10T15:26:48;13.20;99.90
42979;DHT22;28616;44.746;19.678;2022-12-10T15:32:13;13.20;99.90
42979;DHT22;28616;44.746;19.678;2022-12-10T15:34:48;13.20;99.90
42979;DHT22;28616;44.746;19.678;2022-12-10T15:37:24;13.20;99.90
42979;DHT22;28616;44.746;19.678;2022-12-10T15:39:55;13.20;99.90
42979;DHT22;28616;44.746;19.678;2022-12-10T15:42:40;13.20;99.90
42979;DHT22;28616;44.746;19.678;2022-12-10T15:47:41;13.20;99.90
42979;DHT22;28616;44.746;19.678;2022-12-10T15:50:08;13.20;99.90
42979;DHT22;28616;44.746;19.678;2022-12-10T15:52:34;13.20;99.90
42979;DHT22;28616;44.746;19.678;2022-12-10T15:55:01;13.20;99.90
42979;DHT22;28616;44.746;19.678;2022-12-10T15:57:33;13.20;99.90
42979;DHT22;28616;44.746;19.678;2022-12-10T16:00:02;13.20;99.90
42979;DHT22;28616;44.746;19.678;2022-12-10T16:02:39;13.20;99.90
42979;DHT22;28616;44.746;19.678;2022-12-10T16:05:20;13.20;99.90
42979;DHT22;28616;44.746;19.678;2022-12-10T16:07:48;13.20;99.90
42979;DHT22;28616;44.746;19.678;2022-12-10T16:10:16;13.20;99.90
42979;DHT22;28616;44.746;19.678;2022-12-10T16:12:45;13.10;99.90
42979;DHT22;28616;44.746;19.678;2022-12-10T16:15:21;13.10;99.90
42979;DHT22;28616;44.746;19.678;2022-12-10T16:17:48;13.10;99.90
42979;DHT22;28616;44.746;19.678;2022-12-10T16:20:19;12.90;99.90
42979;DHT22;28616;44.746;19.678;2022-12-10T16:22:46;12.70;99.90
42979;DHT22;28616;44.746;19.678;2022-12-10T16:25:12;12.50;99.90
42979;DHT22;28616;44.746;19.678;2022-12-10T16:27:38;12.40;99.90
42979;DHT22;28616;44.746;19.678;2022-12-10T16:30:33;12.10;99.90
42979;DHT22;28616;44.746;19.678;2022-12-10T16:32:59;12.00;99.90
42979;DHT22;28616;44.746;19.678;2022-12-10T16:35:25;12.00;99.90
42979;DHT22;28616;44.746;19.678;2022-12-10T16:37:51;11.80;99.90
42979;DHT22;28616;44.746;19.678;2022-12-10T16:40:21;11.70;99.90
42979;DHT22;28616;44.746;19.678;2022-12-10T16:42:48;11.70;99.90
42979;DHT22;28616;44.746;19.678;2022-12-10T16:45:15;11.50;99.90
42979;DHT22;28616;44.746;19.678;2022-12-10T16:47:41;11.30;99.90
42979;DHT22;28616;44.746;19.678;2022-12-10T16:50:08;11.10;99.90
42979;DHT22;28616;44.746;19.678;2022-12-10T16:52:34;11.00;99.90
42979;DHT22;28616;44.746;19.678;2022-12-10T16:54:59;10.90;99.90
42979;DHT22;28616;44.746;19.678;2022-12-10T16:57:26;10.70;99.90
42979;DHT22;28616;44.746;19.678;2022-12-10T16:59:52;10.50;99.90
42979;DHT22;28616;44.746;19.678;2022-12-10T17:02:18;10.40;99.90
42979;DHT22;28616;44.746;19.678;2022-12-10T17:04:46;10.30;99.90
42979;DHT22;28616;44.746;19.678;2022-12-10T17:07:13;10.30;99.90
42979;DHT22;28616;44.746;19.678;2022-12-10T17:09:40;10.10;99.90
42979;DHT22;28616;44.746;19.678;2022-12-10T17:12:07;10.10;99.90
42979;DHT22;28616;44.746;19.678;2022-12-10T17:14:37;10.00;99.90
42979;DHT22;28616;44.746;19.678;2022-12-10T17:17:04;9.90;99.90
42979;DHT22;28616;44.746;19.678;2022-12-10T17:19:35;9.80;99.90
42979;DHT22;28616;44.746;19.678;2022-12-10T17:22:02;9.70;99.90
42979;DHT22;28616;44.746;19.678;2022-12-10T17:24:28;9.60;99.90
42979;DHT22;28616;44.746;19.678;2022-12-10T17:29:27;9.50;99.90
42979;DHT22;28616;44.746;19.678;2022-12-10T17:34:19;9.40;99.90
42979;DHT22;28616;44.746;19.678;2022-12-10T17:36:49;9.30;99.90
42979;DHT22;28616;44.746;19.678;2022-12-10T17:39:18;9.30;99.90
42979;DHT22;28616;44.746;19.678;2022-12-10T17:41:44;9.30;99.90
42979;DHT22;28616;44.746;19.678;2022-12-10T17:44:10;9.30;99.90
42979;DHT22;28616;44.746;19.678;2022-12-10T17:46:37;9.10;99.90
42979;DHT22;28616;44.746;19.678;2022-12-10T17:49:04;9.10;99.90